Time;durP1;ratioP1;P1;durP2;ratioP2;P2;SDS_P1;SDS_P2;PMS_P1;PMS_P2;Temp;Humidity;BMP_temperature;BMP_pressure;BME280_temperature;BME280_humidity;BME280_pressure;Samples;Min_cycle;Max_cycle;Signal;HPM_P1;HPM_P2
2023/06/06 00:02:09;;;;;;;74.05;28.15;;;;;;;13.04;100.00;92569.00;4984909;28;20047;-79
2023/06/06 00:04:35;;;;;;;76.18;30.30;;;;;;;13.03;100.00;92562.94;4962051;29;20043;-79
2023/06/06 00:07:04;;;;;;;82.05;29.73;;;;;;;13.02;100.00;92565.91;4961607;28;20511;-78
2023/06/06 00:09:30;;;;;;;77.50;29.05;;;;;;;12.97;100.00;92566.00;4955071;29;20046;-79
2023/06/06 00:11:56;;;;;;;64.13;24.88;;;;;;;12.94;100.00;92561.34;4961077;28;20389;-78
2023/06/06 00:14:22;;;;;;;55.55;23.63;;;;;;;12.88;100.00;92566.72;4984276;28;20125;-79
2023/06/06 00:16:49;;;;;;;65.88;24.08;;;;;;;12.83;100.00;92558.16;4955987;28;20444;-78
2023/06/06 00:19:20;;;;;;;56.05;22.15;;;;;;;12.81;100.00;92560.31;4969503;28;20127;-79
2023/06/06 00:21:46;;;;;;;55.92;22.55;;;;;;;12.77;100.00;92562.78;4961977;29;20067;-78
2023/06/06 00:24:11;;;;;;;56.22;22.00;;;;;;;12.74;100.00;92550.22;4953122;28;20038;-78
2023/06/06 00:26:38;;;;;;;58.78;23.88;;;;;;;12.70;100.00;92544.03;4982571;28;20039;-79
2023/06/06 00:29:03;;;;;;;62.85;25.23;;;;;;;12.68;100.00;92549.56;4973597;28;20098;-78
2023/06/06 00:31:29;;;;;;;60.03;22.73;;;;;;;12.63;100.00;92554.94;4974804;28;20448;-79
2023/06/06 00:33:54;;;;;;;68.68;25.33;;;;;;;12.60;100.00;92552.13;4960009;28;20039;-78
2023/06/06 00:36:21;;;;;;;53.97;22.20;;;;;;;12.55;100.00;92552.25;4972041;28;20027;-77
2023/06/06 00:38:47;;;;;;;60.35;22.63;;;;;;;12.56;100.00;92554.56;4957624;29;20047;-78
2023/06/06 00:41:14;;;;;;;57.08;22.60;;;;;;;12.52;100.00;92547.56;4953147;29;20063;-78
2023/06/06 00:43:39;;;;;;;57.30;22.85;;;;;;;12.48;100.00;92553.41;4956952;29;20085;-77
2023/06/06 00:46:05;;;;;;;52.05;21.67;;;;;;;12.45;100.00;92559.28;4935141;28;20031;-78
2023/06/06 00:48:31;;;;;;;57.28;21.52;;;;;;;12.39;100.00;92549.16;4952119;28;20031;-78
2023/06/06 00:50:57;;;;;;;50.85;21.10;;;;;;;12.36;100.00;92549.75;4955663;28;20046;-78
2023/06/06 00:53:23;;;;;;;51.30;20.55;;;;;;;12.32;100.00;92551.44;4957909;28;20090;-78
2023/06/06 00:55:49;;;;;;;53.10;20.33;;;;;;;12.26;100.00;92540.25;4955373;29;20062;-78
2023/06/06 00:58:15;;;;;;;51.20;20.90;;;;;;;12.23;100.00;92540.84;4963675;28;20491;-78
2023/06/06 01:00:41;;;;;;;61.13;21.35;;;;;;;12.14;100.00;92548.63;4941399;28;20070;-77
2023/06/06 01:03:10;;;;;;;54.17;21.55;;;;;;;12.12;100.00;92548.13;4921140;29;20319;-78
2023/06/06 01:05:37;;;;;;;49.00;20.67;;;;;;;12.07;100.00;92554.25;4958932;28;20404;-78
2023/06/06 01:08:05;;;;;;;59.58;21.92;;;;;;;12.06;100.00;92546.69;4966689;28;20505;-79
2023/06/06 01:10:34;;;;;;;58.08;23.23;;;;;;;12.03;100.00;92547.28;4932887;29;20039;-79
2023/06/06 01:13:16;;;;;;;58.45;22.77;;;;;;;12.00;100.00;92538.16;4949059;28;20039;-79
2023/06/06 01:15:46;;;;;;;62.42;23.70;;;;;;;11.96;100.00;92541.66;4959934;28;20081;-79
2023/06/06 01:18:13;;;;;;;52.35;22.52;;;;;;;11.92;100.00;92545.91;4965126;28;20074;-79
2023/06/06 01:20:42;;;;;;;55.55;21.83;;;;;;;11.91;100.00;92552.22;4941014;28;20077;-77
2023/06/06 01:23:10;;;;;;;52.72;20.90;;;;;;;11.88;100.00;92556.22;4974821;28;20048;-78
2023/06/06 01:25:37;;;;;;;52.65;21.15;;;;;;;11.84;100.00;92553.38;4949680;28;20057;-79
2023/06/06 01:28:04;;;;;;;52.67;20.95;;;;;;;11.84;100.00;92563.88;4980733;28;20117;-79
2023/06/06 01:30:33;;;;;;;51.78;21.45;;;;;;;11.79;100.00;92563.94;4956445;29;20031;-77
2023/06/06 01:33:18;;;;;;;53.35;19.63;;;;;;;11.76;100.00;92551.44;4943865;28;20038;-79
2023/06/06 01:36:15;;;;;;;52.33;21.08;;;;;;;11.72;100.00;92557.53;4948823;28;20039;-78
2023/06/06 01:38:46;;;;;;;55.83;21.23;;;;;;;11.69;100.00;92563.38;4955836;28;20034;-78
2023/06/06 01:41:16;;;;;;;60.35;21.38;;;;;;;11.66;100.00;92560.28;4972400;28;20043;-78
2023/06/06 01:43:47;;;;;;;60.17;22.65;;;;;;;11.65;100.00;92563.16;4962651;28;20031;-78
2023/06/06 01:46:13;;;;;;;55.00;20.75;;;;;;;11.63;100.00;92560.06;4969002;28;20092;-77
2023/06/06 01:48:40;;;;;;;56.72;22.15;;;;;;;11.62;100.00;92559.28;4960002;28;20034;-78
2023/06/06 01:51:09;;;;;;;60.25;23.00;;;;;;;11.62;100.00;92553.28;4967622;28;20062;-78
2023/06/06 01:53:37;;;;;;;61.15;21.58;;;;;;;11.62;100.00;92558.53;4940536;29;20155;-78
2023/06/06 01:56:03;;;;;;;61.55;21.80;;;;;;;11.63;100.00;92558.22;4934987;28;20077;-78
2023/06/06 01:58:28;;;;;;;49.97;21.73;;;;;;;11.63;100.00;92554.81;4959314;28;20443;-77
2023/06/06 02:00:54;;;;;;;54.22;22.67;;;;;;;11.62;100.00;92556.66;4953191;28;20072;-78
2023/06/06 02:03:20;;;;;;;54.63;22.90;;;;;;;11.62;100.00;92553.28;4956051;29;20097;-78
2023/06/06 02:05:46;;;;;;;56.55;20.83;;;;;;;11.59;100.00;92553.84;4945690;29;20039;-78
2023/06/06 02:08:12;;;;;;;50.10;21.15;;;;;;;11.57;100.00;92553.34;4948641;28;20038;-79
2023/06/06 02:10:38;;;;;;;66.45;23.48;;;;;;;11.56;100.00;92552.56;4955568;29;20575;-79
2023/06/06 02:13:06;;;;;;;64.25;24.65;;;;;;;11.53;100.00;92560.22;4958179;28;20129;-78
2023/06/06 02:15:32;;;;;;;58.53;23.48;;;;;;;11.52;100.00;92561.31;4955538;29;20074;-78
2023/06/06 02:17:57;;;;;;;53.63;21.38;;;;;;;11.49;100.00;92554.81;4945314;28;20517;-78
2023/06/06 02:20:24;;;;;;;50.13;22.23;;;;;;;11.42;100.00;92544.69;4952699;28;20038;-78
2023/06/06 02:22:49;;;;;;;53.60;20.95;;;;;;;11.39;100.00;92555.78;4958215;28;20058;-78
2023/06/06 02:25:16;;;;;;;55.92;21.75;;;;;;;11.40;100.00;92556.53;4954747;29;20113;-77
2023/06/06 02:27:44;;;;;;;64.38;23.90;;;;;;;11.37;100.00;92557.91;4956859;29;20031;-78
2023/06/06 02:30:10;;;;;;;73.75;23.35;;;;;;;11.37;100.00;92562.34;4948454;28;20049;-78
2023/06/06 02:32:36;;;;;;;66.15;23.75;;;;;;;11.36;100.00;92561.56;4969510;28;20127;-78
2023/06/06 02:35:03;;;;;;;59.28;22.73;;;;;;;11.37;100.00;92552.66;4956049;28;20124;-78
2023/06/06 02:37:38;;;;;;;54.78;22.48;;;;;;;11.39;100.00;92554.97;4954747;29;20042;-78
2023/06/06 02:40:08;;;;;;;64.95;22.60;;;;;;;11.37;100.00;92557.91;4967697;28;20035;-79
2023/06/06 02:42:36;;;;;;;67.45;23.00;;;;;;;11.37;100.00;92551.84;4923424;28;20125;-79
2023/06/06 02:45:07;;;;;;;60.20;23.95;;;;;;;11.38;100.00;92551.56;4959308;28;20039;-78
2023/06/06 02:47:33;;;;;;;65.07;24.67;;;;;;;11.38;100.00;92561.28;4953357;28;20480;-78
2023/06/06 02:49:58;;;;;;;63.13;23.50;;;;;;;11.38;100.00;92553.44;4946231;28;20041;-78
2023/06/06 02:52:24;;;;;;;64.50;24.70;;;;;;;11.40;100.00;92557.31;4944181;28;20132;-78
2023/06/06 02:54:50;;;;;;;68.35;25.10;;;;;;;11.42;100.00;92554.41;4955604;28;20512;-78
2023/06/06 02:57:16;;;;;;;67.30;25.38;;;;;;;11.43;100.00;92553.34;4956750;28;20050;-78
2023/06/06 02:59:43;;;;;;;66.85;25.73;;;;;;;11.43;100.00;92559.34;4964301;28;20051;-78
2023/06/06 03:02:10;;;;;;;68.75;24.17;;;;;;;11.47;100.00;92556.94;4966091;28;20039;-78
2023/06/06 03:04:36;;;;;;;59.30;24.45;;;;;;;11.50;100.00;92558.19;4962656;28;20043;-78
2023/06/06 03:07:01;;;;;;;58.60;23.23;;;;;;;11.54;100.00;92556.56;4932839;29;20397;-77
2023/06/06 03:09:27;;;;;;;58.70;24.13;;;;;;;11.56;100.00;92563.06;4940145;29;20042;-77
2023/06/06 03:11:54;;;;;;;64.00;25.83;;;;;;;11.60;100.00;92560.66;4945776;29;20568;-78
2023/06/06 03:14:20;;;;;;;63.35;25.00;;;;;;;11.61;100.00;92560.34;4939028;29;20031;-78
2023/06/06 03:16:51;;;;;;;57.40;22.55;;;;;;;11.62;100.00;92553.28;4952667;29;20604;-78
2023/06/06 03:19:17;;;;;;;67.95;24.80;;;;;;;11.65;100.00;92550.06;4953763;28;20038;-78
2023/06/06 03:21:43;;;;;;;68.38;25.38;;;;;;;11.67;100.00;92550.56;4956575;28;20030;-78
2023/06/06 03:24:09;;;;;;;68.03;24.63;;;;;;;11.69;100.00;92553.66;4941847;28;20038;-79
2023/06/06 03:26:36;;;;;;;64.63;25.77;;;;;;;11.70;100.00;92555.19;4958136;28;20038;-79
2023/06/06 03:29:02;;;;;;;64.13;25.95;;;;;;;11.71;100.00;92562.03;4973288;28;20038;-78
2023/06/06 03:31:32;;;;;;;73.88;26.10;;;;;;;11.73;100.00;92553.84;4956757;28;20515;-79
2023/06/06 03:33:58;;;;;;;63.78;25.25;;;;;;;11.76;100.00;92559.28;4971905;28;20031;-79
2023/06/06 03:36:26;;;;;;;70.32;27.17;;;;;;;11.77;100.00;92552.97;4965232;28;20097;-78
2023/06/06 03:38:53;;;;;;;72.03;25.77;;;;;;;11.81;100.00;92556.56;4969669;28;20039;-78
2023/06/06 03:41:18;;;;;;;74.00;27.67;;;;;;;11.84;100.00;92560.44;4958586;29;20496;-78
2023/06/06 03:43:44;;;;;;;72.07;26.08;;;;;;;11.84;100.00;92555.19;4955016;28;20058;-78
2023/06/06 03:46:11;;;;;;;76.13;26.85;;;;;;;11.87;100.00;92554.63;4961534;28;20049;-78
2023/06/06 03:48:36;;;;;;;75.50;26.73;;;;;;;11.87;100.00;92560.69;4950157;29;20102;-78
2023/06/06 03:51:02;;;;;;;84.25;26.80;;;;;;;11.91;100.00;92554.84;4949352;28;20597;-78
2023/06/06 03:53:28;;;;;;;77.80;28.00;;;;;;;11.94;100.00;92554.28;4945551;28;20039;-78
2023/06/06 03:55:54;;;;;;;78.15;27.83;;;;;;;11.95;100.00;92540.84;4958553;29;20027;-77
2023/06/06 03:58:20;;;;;;;69.93;26.95;;;;;;;11.97;100.00;92548.44;4947575;28;20568;-78
2023/06/06 04:00:46;;;;;;;75.78;25.27;;;;;;;11.97;100.00;92541.34;4974777;28;20234;-79
2023/06/06 04:03:12;;;;;;;71.60;27.13;;;;;;;12.01;100.00;92544.94;4979089;28;20080;-78
2023/06/06 04:05:39;;;;;;;75.32;25.50;;;;;;;12.06;100.00;92550.06;4958736;28;20064;-78
2023/06/06 04:08:07;;;;;;;62.63;24.60;;;;;;;12.06;100.00;92549.31;4954118;29;20046;-78
2023/06/06 04:10:33;;;;;;;63.25;24.77;;;;;;;12.10;100.00;92550.28;4955503;28;20041;-78
2023/06/06 04:13:00;;;;;;;61.22;24.15;;;;;;;12.14;100.00;92547.84;4962060;28;20409;-78
2023/06/06 04:15:25;;;;;;;59.30;23.17;;;;;;;12.21;100.00;92543.75;4961695;28;20050;-79
2023/06/06 04:17:51;;;;;;;65.13;24.75;;;;;;;12.24;100.00;92545.78;4978475;28;20170;-78
2023/06/06 04:20:17;;;;;;;65.47;24.88;;;;;;;12.29;100.00;92540.44;4942412;29;20035;-78
2023/06/06 04:22:43;;;;;;;62.78;24.73;;;;;;;12.37;100.00;92546.06;4947889;28;20080;-78
2023/06/06 04:25:09;;;;;;;57.72;24.27;;;;;;;12.42;100.00;92543.31;4966768;28;20488;-77
2023/06/06 04:27:37;;;;;;;67.70;26.05;;;;;;;12.47;100.00;92541.38;4947390;28;20400;-78
2023/06/06 04:30:05;;;;;;;63.33;24.60;;;;;;;12.54;100.00;92551.47;4953382;28;20572;-78
2023/06/06 04:32:30;;;;;;;75.60;26.75;;;;;;;12.60;100.00;92554.75;4980126;28;20046;-77
2023/06/06 04:34:57;;;;;;;65.30;25.30;;;;;;;12.65;100.00;92547.56;4956069;28;20420;-78
2023/06/06 04:37:27;;;;;;;71.53;25.55;;;;;;;12.69;100.00;92545.84;4944867;28;20046;-78
2023/06/06 04:39:56;;;;;;;66.22;24.08;;;;;;;12.73;100.00;92542.66;4963170;28;20047;-80
2023/06/06 04:42:24;;;;;;;67.13;24.55;;;;;;;12.77;100.00;92548.88;4965161;29;20063;-79
2023/06/06 04:44:50;;;;;;;63.00;23.92;;;;;;;12.80;100.00;92549.03;4950286;28;20400;-78
2023/06/06 04:47:19;;;;;;;57.17;23.02;;;;;;;12.86;100.00;92557.59;4953929;28;20031;-79
2023/06/06 04:49:46;;;;;;;58.35;23.77;;;;;;;12.90;100.00;92555.91;4956888;28;20043;-78
2023/06/06 04:52:15;;;;;;;57.60;24.02;;;;;;;12.95;100.00;92550.56;4957901;28;20023;-78
2023/06/06 04:54:42;;;;;;;62.30;24.77;;;;;;;13.01;100.00;92559.06;4955615;28;20053;-78
2023/06/06 04:57:08;;;;;;;66.82;24.75;;;;;;;13.04;100.00;92559.25;4966333;28;20044;-77
2023/06/06 04:59:35;;;;;;;64.25;25.88;;;;;;;13.10;100.00;92557.28;4966065;28;20039;-77
2023/06/06 05:02:06;;;;;;;66.78;26.45;;;;;;;13.16;100.00;92555.31;4950869;28;20059;-78
2023/06/06 05:04:32;;;;;;;58.38;24.58;;;;;;;13.23;100.00;92553.03;4967780;28;20126;-78
2023/06/06 05:06:59;;;;;;;55.10;24.63;;;;;;;13.32;100.00;92549.41;4958540;28;20489;-78
2023/06/06 05:09:25;;;;;;;63.00;26.10;;;;;;;13.40;100.00;92550.53;4965351;28;20034;-79
2023/06/06 05:11:52;;;;;;;52.70;23.60;;;;;;;13.49;100.00;92547.97;4961802;28;20039;-80
2023/06/06 05:14:23;;;;;;;57.60;24.10;;;;;;;13.58;100.00;92548.78;4968783;28;20058;-79
2023/06/06 05:16:53;;;;;;;54.30;24.05;;;;;;;13.76;100.00;92544.38;4951745;28;20191;-79
2023/06/06 05:19:19;;;;;;;59.53;24.90;;;;;;;13.93;100.00;92544.41;4968103;28;20126;-79
2023/06/06 05:21:45;;;;;;;62.28;24.05;;;;;;;14.11;100.00;92544.47;4972439;28;20031;-79
2023/06/06 05:24:10;;;;;;;52.60;23.25;;;;;;;14.25;100.00;92539.88;4961514;28;20039;-79
2023/06/06 05:26:36;;;;;;;47.40;21.13;;;;;;;14.35;100.00;92531.66;4976882;28;20035;-78
2023/06/06 05:29:02;;;;;;;47.83;17.88;;;;;;;14.49;100.00;92536.03;4964652;28;20544;-78
2023/06/06 05:31:27;;;;;;;40.40;19.17;;;;;;;14.52;100.00;92540.66;4972362;28;20043;-78
2023/06/06 05:33:54;;;;;;;38.38;17.88;;;;;;;14.60;100.00;92534.66;4968225;28;20043;-79
2023/06/06 05:36:20;;;;;;;45.22;19.42;;;;;;;14.71;100.00;92533.28;4973152;28;20027;-79
2023/06/06 05:38:46;;;;;;;36.22;17.55;;;;;;;15.00;100.00;92537.16;4973359;28;20560;-79
2023/06/06 05:41:13;;;;;;;35.20;16.70;;;;;;;14.99;100.00;92532.94;4972549;28;20162;-78
2023/06/06 05:43:38;;;;;;;35.13;15.90;;;;;;;15.04;100.00;92534.66;4976514;28;20039;-78
2023/06/06 05:46:04;;;;;;;32.22;14.73;;;;;;;15.38;100.00;92533.84;4964379;28;20069;-78
2023/06/06 05:48:30;;;;;;;32.40;15.27;;;;;;;15.60;100.00;92535.47;4972036;28;20496;-78
2023/06/06 05:50:56;;;;;;;27.27;13.75;;;;;;;15.65;100.00;92537.16;4978600;28;20118;-78
2023/06/06 05:53:23;;;;;;;30.65;16.75;;;;;;;16.05;100.00;92534.22;4955450;28;20077;-78
2023/06/06 05:55:49;;;;;;;21.60;13.20;;;;;;;15.99;100.00;92534.41;4974831;28;20484;-78
2023/06/06 05:58:15;;;;;;;27.33;14.55;;;;;;;15.64;100.00;92535.63;4980751;28;20046;-78
2023/06/06 06:00:41;;;;;;;21.52;12.88;;;;;;;15.68;100.00;92536.53;4979327;28;20038;-79
2023/06/06 06:03:08;;;;;;;23.25;12.18;;;;;;;15.54;100.00;92536.75;4974436;28;20063;-78
2023/06/06 06:05:35;;;;;;;23.92;13.32;;;;;;;15.35;100.00;92537.09;4975532;28;20031;-78
2023/06/06 06:08:02;;;;;;;25.65;14.40;;;;;;;15.25;100.00;92540.84;4961440;28;20043;-78
2023/06/06 06:10:28;;;;;;;26.42;13.45;;;;;;;15.32;100.00;92541.13;4972496;28;20054;-78
2023/06/06 06:12:55;;;;;;;28.90;14.70;;;;;;;15.24;100.00;92544.53;4977194;28;20047;-78
2023/06/06 06:15:21;;;;;;;26.52;14.07;;;;;;;15.13;100.00;92538.84;4961125;29;20137;-78
2023/06/06 06:17:48;;;;;;;30.85;15.10;;;;;;;15.09;100.00;92532.63;4975981;28;20082;-79
2023/06/06 06:20:19;;;;;;;26.38;14.13;;;;;;;15.08;100.00;92538.97;4973357;28;20102;-78
2023/06/06 06:22:46;;;;;;;26.42;14.52;;;;;;;14.90;100.00;92535.59;4968864;28;20096;-79
2023/06/06 06:25:16;;;;;;;34.63;15.52;;;;;;;14.96;100.00;92534.34;4955367;28;20070;-78
2023/06/06 06:27:43;;;;;;;29.38;14.88;;;;;;;15.05;100.00;92536.22;4971293;28;20044;-78
2023/06/06 06:30:10;;;;;;;38.30;15.90;;;;;;;15.21;100.00;92534.63;4952950;28;20054;-78
2023/06/06 06:32:43;;;;;;;27.65;16.42;;;;;;;15.08;100.00;92538.97;4969757;28;20082;-78
2023/06/06 06:35:09;;;;;;;32.00;16.05;;;;;;;14.99;100.00;92536.38;4975256;28;20034;-78
2023/06/06 06:37:39;;;;;;;47.30;17.63;;;;;;;14.86;100.00;92541.78;4972924;28;20669;-78
2023/06/06 06:40:08;;;;;;;27.88;17.10;;;;;;;14.67;100.00;92548.16;4978682;28;20035;-78
2023/06/06 06:42:34;;;;;;;30.92;17.90;;;;;;;14.74;100.00;92545.81;4966964;28;20070;-78
2023/06/06 06:45:12;;;;;;;34.40;17.52;;;;;;;14.62;100.00;92553.56;4959182;28;20035;-78
2023/06/06 06:47:40;;;;;;;34.80;17.75;;;;;;;14.88;100.00;92552.81;4974118;28;20094;-78
2023/06/06 06:50:06;;;;;;;31.50;17.90;;;;;;;14.87;100.00;92557.31;4974217;28;20580;-78
2023/06/06 06:52:35;;;;;;;25.83;15.35;;;;;;;14.76;100.00;92556.81;4951231;28;20061;-78
2023/06/06 06:55:03;;;;;;;40.28;18.10;;;;;;;14.52;100.00;92561.75;4968960;28;20070;-78
2023/06/06 06:57:29;;;;;;;32.72;17.83;;;;;;;14.61;100.00;92559.91;4951566;28;20046;-78
2023/06/06 06:59:59;;;;;;;45.00;21.75;;;;;;;14.62;100.00;92556.22;4972060;28;20347;-78
2023/06/06 07:02:27;;;;;;;48.88;21.50;;;;;;;14.69;100.00;92563.66;4965143;28;20039;-78
2023/06/06 07:05:01;;;;;;;35.55;18.80;;;;;;;14.74;100.00;92558.22;4965919;28;20038;-78
2023/06/06 07:07:26;;;;;;;37.35;18.48;;;;;;;14.86;100.00;92562.88;4956327;29;20035;-78
2023/06/06 07:09:53;;;;;;;34.90;17.60;;;;;;;14.88;100.00;92558.06;4955991;29;20031;-79
2023/06/06 07:12:20;;;;;;;39.92;16.85;;;;;;;14.89;100.00;92565.69;4971595;28;20031;-79
2023/06/06 07:14:46;;;;;;;32.20;17.23;;;;;;;14.90;100.00;92561.16;4972884;28;20039;-78
2023/06/06 07:17:11;;;;;;;31.92;17.27;;;;;;;14.94;100.00;92564.75;4957983;29;20039;-78
2023/06/06 07:19:37;;;;;;;31.85;16.17;;;;;;;15.11;100.00;92556.84;4975449;28;20038;-78
2023/06/06 07:22:04;;;;;;;30.98;17.48;;;;;;;15.18;100.00;92562.41;4948057;28;20516;-77
2023/06/06 07:24:29;;;;;;;31.88;16.63;;;;;;;15.11;100.00;92556.84;4973165;28;20035;-79
2023/06/06 07:26:56;;;;;;;28.17;15.57;;;;;;;15.14;100.00;92550.94;4977592;28;20034;-79
2023/06/06 07:29:23;;;;;;;28.20;15.57;;;;;;;15.18;100.00;92551.84;4970813;28;20050;-78
2023/06/06 07:31:49;;;;;;;24.98;14.10;;;;;;;15.21;100.00;92555.72;4985144;28;20114;-78
2023/06/06 07:34:15;;;;;;;28.23;14.93;;;;;;;15.21;100.00;92558.38;4967199;28;20039;-78
2023/06/06 07:36:40;;;;;;;24.77;13.80;;;;;;;15.37;100.00;92563.91;4977372;28;20037;-79
2023/06/06 07:39:06;;;;;;;27.50;13.90;;;;;;;15.29;100.00;92562.84;4987150;28;20034;-79
2023/06/06 07:41:33;;;;;;;26.10;14.30;;;;;;;15.35;100.00;92566.88;4967681;28;20031;-79
2023/06/06 07:44:00;;;;;;;28.83;14.18;;;;;;;15.38;100.00;92553.06;4970833;28;20035;-79
2023/06/06 07:46:25;;;;;;;26.92;15.90;;;;;;;15.55;100.00;92559.38;4955337;28;20034;-79
2023/06/06 07:48:51;;;;;;;27.00;15.88;;;;;;;15.57;100.00;92557.97;4987507;28;20035;-79
2023/06/06 07:51:18;;;;;;;26.67;15.27;;;;;;;15.65;100.00;92552.97;4980847;28;20043;-79
2023/06/06 07:53:46;;;;;;;27.73;15.60;;;;;;;15.70;100.00;92558.09;4987125;28;20039;-79
2023/06/06 07:56:17;;;;;;;25.20;14.35;;;;;;;15.79;100.00;92556.25;4951235;29;20054;-80
2023/06/06 07:58:51;;;;;;;23.98;14.20;;;;;;;15.88;100.00;92559.63;4964601;28;20486;-80
2023/06/06 08:01:19;;;;;;;27.38;15.20;;;;;;;15.90;100.00;92554.03;4968689;28;20087;-80
2023/06/06 08:03:49;;;;;;;26.25;14.50;;;;;;;16.00;100.00;92561.59;4980374;28;20043;-79
2023/06/06 08:06:18;;;;;;;20.88;13.20;;;;;;;16.15;100.00;92563.69;4988428;28;20245;-80
2023/06/06 08:08:46;;;;;;;20.15;12.48;;;;;;;16.18;100.00;92563.06;4977716;28;20484;-79
2023/06/06 08:11:16;;;;;;;20.23;11.60;;;;;;;16.16;100.00;92557.31;4979399;28;20146;-78
2023/06/06 08:13:42;;;;;;;19.75;11.13;;;;;;;16.13;100.00;92551.91;4979398;28;20110;-79
2023/06/06 08:16:08;;;;;;;21.63;11.98;;;;;;;16.09;100.00;92549.13;4974658;28;20082;-79
2023/06/06 08:18:35;;;;;;;20.98;12.73;;;;;;;16.10;100.00;92549.88;4958013;29;20118;-79
2023/06/06 08:21:00;;;;;;;19.45;11.77;;;;;;;16.16;100.00;92554.66;4985427;28;20117;-79
2023/06/06 08:23:26;;;;;;;19.52;11.57;;;;;;;16.08;100.00;92550.22;4970959;28;20058;-78
2023/06/06 08:25:55;;;;;;;21.40;12.10;;;;;;;16.21;100.00;92548.44;4965236;28;20035;-79
2023/06/06 08:28:25;;;;;;;20.70;10.65;;;;;;;16.34;100.00;92547.44;4968842;28;20185;-79
2023/06/06 08:30:51;;;;;;;17.23;10.82;;;;;;;16.44;100.00;92546.31;4985746;28;20074;-79
2023/06/06 08:33:20;;;;;;;19.10;11.60;;;;;;;16.37;100.00;92540.72;4983563;28;20049;-79
2023/06/06 08:35:49;;;;;;;18.48;11.48;;;;;;;16.43;100.00;92545.50;4965326;28;20046;-79
2023/06/06 08:38:15;;;;;;;17.02;10.85;;;;;;;16.53;100.00;92548.91;4988539;28;20041;-79
2023/06/06 08:40:41;;;;;;;14.70;10.27;;;;;;;16.83;100.00;92547.75;4988515;28;20038;-79
2023/06/06 08:43:13;;;;;;;16.33;9.60;;;;;;;17.42;100.00;92554.72;4984391;28;20030;-79
2023/06/06 08:45:56;;;;;;;19.40;10.35;;;;;;;17.09;100.00;92549.44;4975702;28;20068;-79
2023/06/06 08:48:26;;;;;;;18.05;10.85;;;;;;;17.00;100.00;92551.34;4978182;28;20098;-79
2023/06/06 08:50:52;;;;;;;18.10;10.07;;;;;;;17.31;100.00;92552.81;4989894;28;20512;-79
2023/06/06 08:53:19;;;;;;;13.57;8.15;;;;;;;17.55;100.00;92550.22;4987009;28;20077;-79
2023/06/06 08:55:45;;;;;;;14.15;9.77;;;;;;;17.75;100.00;92555.78;4978257;28;20046;-78
2023/06/06 08:58:12;;;;;;;13.40;8.35;;;;;;;18.15;100.00;92560.47;4974860;28;20043;-79
2023/06/06 09:00:37;;;;;;;13.02;8.55;;;;;;;18.03;100.00;92561.25;4988027;28;20042;-78
2023/06/06 09:03:06;;;;;;;16.83;9.10;;;;;;;17.99;100.00;92560.34;4971180;28;20047;-78
2023/06/06 09:05:32;;;;;;;11.30;7.65;;;;;;;18.02;100.00;92563.13;4978852;28;20039;-79
2023/06/06 09:07:58;;;;;;;12.70;8.77;;;;;;;18.17;100.00;92563.56;4971710;28;20094;-78
2023/06/06 09:10:24;;;;;;;12.00;7.78;;;;;;;18.40;100.00;92561.28;4973480;28;20071;-79
2023/06/06 09:12:50;;;;;;;12.45;8.07;;;;;;;18.30;100.00;92557.16;4977375;28;20031;-78
2023/06/06 09:15:16;;;;;;;14.48;8.77;;;;;;;18.50;100.00;92560.81;4984323;28;20023;-78
2023/06/06 09:17:46;;;;;;;14.50;8.07;;;;;;;18.66;100.00;92566.19;4973616;28;20107;-77
2023/06/06 09:20:14;;;;;;;13.85;8.18;;;;;;;18.59;100.00;92563.34;4969065;29;20062;-79
2023/06/06 09:22:42;;;;;;;14.85;9.38;;;;;;;18.71;100.00;92565.97;4952792;29;20046;-79
2023/06/06 09:25:27;;;;;;;13.07;7.63;;;;;;;18.92;100.00;92561.31;4984768;28;20035;-78
2023/06/06 09:28:03;;;;;;;12.30;7.70;;;;;;;18.67;100.00;92562.47;4973686;28;20039;-78
2023/06/06 09:30:31;;;;;;;13.90;7.30;;;;;;;18.73;100.00;92569.84;4969966;28;20043;-79
2023/06/06 09:32:58;;;;;;;12.15;7.10;;;;;;;19.07;100.00;92561.72;4974479;28;20047;-80
2023/06/06 09:35:37;;;;;;;13.15;6.63;;;;;;;19.14;100.00;92561.94;4976788;28;20038;-81
2023/06/06 09:38:19;;;;;;;10.85;6.45;;;;;;;19.18;100.00;92562.78;4977357;28;20036;-81
2023/06/06 09:40:47;;;;;;;8.52;5.47;;;;;;;19.46;100.00;92568.09;4955046;28;20042;-81
2023/06/06 09:43:13;;;;;;;12.82;6.85;;;;;;;19.32;100.00;92571.13;4966206;28;20497;-81
2023/06/06 09:45:55;;;;;;;13.25;7.47;;;;;;;19.16;100.00;92558.91;4977548;28;20416;-80
2023/06/06 09:48:28;;;;;;;9.88;6.20;;;;;;;19.24;100.00;92558.00;4961413;29;20432;-81
2023/06/06 09:50:54;;;;;;;9.25;5.70;;;;;;;18.42;100.00;92554.53;4984612;28;20039;-78
2023/06/06 09:53:28;;;;;;;9.55;6.30;;;;;;;18.74;100.00;92554.69;4985384;28;20039;-79
2023/06/06 09:55:57;;;;;;;14.10;7.18;;;;;;;18.80;100.00;92553.41;4962019;29;20114;-79
2023/06/06 09:58:26;;;;;;;11.65;6.15;;;;;;;19.08;100.00;92542.81;4967918;28;20054;-79
2023/06/06 10:00:58;;;;;;;10.73;6.47;;;;;;;18.97;100.00;92555.00;4962382;29;20413;-79
2023/06/06 10:03:25;;;;;;;13.27;6.50;;;;;;;18.97;100.00;92552.34;4953372;28;20061;-79
2023/06/06 10:05:52;;;;;;;12.98;6.25;;;;;;;19.19;100.00;92542.34;4967279;29;20035;-79
2023/06/06 10:08:19;;;;;;;6.88;4.00;;;;;;;19.27;100.00;92544.06;4967974;29;20557;-79
2023/06/06 10:10:46;;;;;;;11.10;6.15;;;;;;;19.27;100.00;92536.88;4985683;28;20035;-79
2023/06/06 10:13:13;;;;;;;10.98;6.10;;;;;;;19.27;100.00;92544.84;4969497;28;20090;-79
2023/06/06 10:15:40;;;;;;;9.13;5.10;;;;;;;18.90;100.00;92537.00;4986402;28;20026;-79
2023/06/06 10:18:08;;;;;;;9.50;5.60;;;;;;;18.77;100.00;92532.03;4980687;28;20122;-81
2023/06/06 10:20:35;;;;;;;8.38;4.90;;;;;;;18.88;100.00;92539.22;4968567;28;20031;-79
2023/06/06 10:23:02;;;;;;;9.73;5.63;;;;;;;19.11;100.00;92530.75;4962701;28;20054;-80
2023/06/06 10:25:28;;;;;;;8.30;5.55;;;;;;;19.21;100.00;92530.28;4947093;28;20031;-81
2023/06/06 10:28:06;;;;;;;10.95;5.40;;;;;;;19.38;100.00;92529.19;4953331;28;20134;-80
2023/06/06 10:30:52;;;;;;;14.00;5.40;;;;;;;19.51;100.00;92530.66;4961532;28;20288;-80
2023/06/06 10:33:33;;;;;;;11.38;5.45;;;;;;;19.89;100.00;92540.00;4964495;28;20046;-81
2023/06/06 10:36:03;;;;;;;9.82;5.65;;;;;;;19.88;100.00;92535.00;4961022;28;20057;-82
2023/06/06 10:38:33;;;;;;;9.13;5.28;;;;;;;19.89;100.00;92529.38;4967617;28;20035;-82
2023/06/06 10:40:58;;;;;;;11.13;5.57;;;;;;;19.68;100.00;92537.56;4967745;28;20110;-82
2023/06/06 10:43:41;;;;;;;8.60;5.70;;;;;;;19.92;100.00;92527.91;4964982;28;20122;-80
2023/06/06 10:46:07;;;;;;;;;;;;;;;19.93;100.00;92529.47;4974453;28;20042;-80
2023/06/06 10:48:56;;;;;;;7.65;4.93;;;;;;;20.09;100.00;92524.16;4944796;29;19914;-80
2023/06/06 10:51:47;;;;;;;9.35;5.57;;;;;;;19.83;100.00;92532.63;4982221;28;20723;-81
2023/06/06 10:54:15;;;;;;;11.68;5.28;;;;;;;19.95;100.00;92514.72;4981459;28;20027;-80
2023/06/06 10:56:54;;;;;;;10.93;5.63;;;;;;;20.02;100.00;92518.66;4966156;28;20027;-79
2023/06/06 10:59:24;;;;;;;7.95;4.88;;;;;;;20.24;100.00;92523.38;4966960;28;20046;-80
2023/06/06 11:01:49;;;;;;;8.13;5.13;;;;;;;20.40;100.00;92515.38;4959369;29;20028;-79
2023/06/06 11:04:19;;;;;;;10.98;5.15;;;;;;;20.52;100.00;92515.25;4945675;28;20640;-80
2023/06/06 11:06:49;;;;;;;8.85;5.13;;;;;;;20.11;100.00;92517.38;4966631;28;20106;-79
2023/06/06 11:09:24;;;;;;;9.02;5.10;;;;;;;20.07;100.00;92511.19;4975334;28;20035;-79
2023/06/06 11:12:12;;;;;;;10.30;5.57;;;;;;;19.72;100.00;92517.22;4983444;28;20038;-80
2023/06/06 11:15:02;;;;;;;10.27;5.63;;;;;;;19.90;99.04;92517.63;4967699;28;20053;-79
2023/06/06 11:17:43;;;;;;;10.15;4.65;;;;;;;20.02;98.70;92514.13;4958160;28;20050;-79